sensor_id;sensor_type;location;lat;lon;timestamp;P1;durP1;ratioP1;P2;durP2;ratioP2
15629;SDS011;7914;50.842;0.166;2023-06-22T00:00:52;19.08;;;7.82;;
15629;SDS011;7914;50.842;0.166;2023-06-22T00:03:18;18.98;;;7.75;;
15629;SDS011;7914;50.842;0.166;2023-06-22T00:05:48;17.30;;;7.22;;
15629;SDS011;7914;50.842;0.166;2023-06-22T00:08:14;17.63;;;8.05;;
15629;SDS011;7914;50.842;0.166;2023-06-22T00:10:41;17.45;;;7.15;;
15629;SDS011;7914;50.842;0.166;2023-06-22T00:13:07;19.85;;;8.60;;
15629;SDS011;7914;50.842;0.166;2023-06-22T00:15:34;19.55;;;7.30;;
15629;SDS011;7914;50.842;0.166;2023-06-22T00:18:01;16.58;;;7.93;;
15629;SDS011;7914;50.842;0.166;2023-06-22T00:20:27;16.60;;;7.82;;
15629;SDS011;7914;50.842;0.166;2023-06-22T00:22:57;14.05;;;6.72;;
15629;SDS011;7914;50.842;0.166;2023-06-22T00:25:23;20.98;;;8.05;;
15629;SDS011;7914;50.842;0.166;2023-06-22T00:27:49;19.15;;;8.68;;
15629;SDS011;7914;50.842;0.166;2023-06-22T00:30:16;17.73;;;8.32;;
15629;SDS011;7914;50.842;0.166;2023-06-22T00:32:43;19.38;;;9.85;;
15629;SDS011;7914;50.842;0.166;2023-06-22T00:35:09;16.95;;;8.43;;
15629;SDS011;7914;50.842;0.166;2023-06-22T00:37:36;17.95;;;8.85;;
15629;SDS011;7914;50.842;0.166;2023-06-22T00:40:02;20.42;;;8.25;;
15629;SDS011;7914;50.842;0.166;2023-06-22T00:42:29;22.08;;;8.10;;
15629;SDS011;7914;50.842;0.166;2023-06-22T00:44:55;21.05;;;8.60;;
15629;SDS011;7914;50.842;0.166;2023-06-22T00:47:21;24.38;;;10.00;;
15629;SDS011;7914;50.842;0.166;2023-06-22T00:49:47;20.23;;;8.80;;
15629;SDS011;7914;50.842;0.166;2023-06-22T00:52:18;22.35;;;9.23;;
15629;SDS011;7914;50.842;0.166;2023-06-22T00:54:47;20.83;;;8.70;;
15629;SDS011;7914;50.842;0.166;2023-06-22T00:57:14;20.13;;;9.25;;
15629;SDS011;7914;50.842;0.166;2023-06-22T00:59:46;17.85;;;7.70;;
15629;SDS011;7914;50.842;0.166;2023-06-22T01:02:13;20.55;;;8.73;;
15629;SDS011;7914;50.842;0.166;2023-06-22T01:04:40;20.10;;;9.50;;
15629;SDS011;7914;50.842;0.166;2023-06-22T01:09:32;20.00;;;8.60;;
15629;SDS011;7914;50.842;0.166;2023-06-22T01:12:05;19.48;;;7.75;;
15629;SDS011;7914;50.842;0.166;2023-06-22T01:14:50;29.52;;;8.30;;
15629;SDS011;7914;50.842;0.166;2023-06-22T01:17:27;19.48;;;8.07;;
15629;SDS011;7914;50.842;0.166;2023-06-22T01:19:54;20.20;;;7.65;;
15629;SDS011;7914;50.842;0.166;2023-06-22T01:22:24;17.70;;;7.18;;
15629;SDS011;7914;50.842;0.166;2023-06-22T01:25:19;21.13;;;7.38;;
15629;SDS011;7914;50.842;0.166;2023-06-22T01:30:32;20.27;;;7.90;;
15629;SDS011;7914;50.842;0.166;2023-06-22T01:32:59;17.70;;;7.03;;
15629;SDS011;7914;50.842;0.166;2023-06-22T01:35:27;20.92;;;8.13;;
15629;SDS011;7914;50.842;0.166;2023-06-22T01:37:53;19.30;;;7.70;;
15629;SDS011;7914;50.842;0.166;2023-06-22T01:40:20;19.42;;;8.32;;
15629;SDS011;7914;50.842;0.166;2023-06-22T01:42:47;19.25;;;7.53;;
15629;SDS011;7914;50.842;0.166;2023-06-22T01:45:13;21.17;;;8.73;;
15629;SDS011;7914;50.842;0.166;2023-06-22T01:47:40;17.75;;;7.63;;
15629;SDS011;7914;50.842;0.166;2023-06-22T01:50:07;19.90;;;7.88;;
15629;SDS011;7914;50.842;0.166;2023-06-22T01:52:33;18.25;;;7.22;;
15629;SDS011;7914;50.842;0.166;2023-06-22T01:54:59;17.05;;;7.25;;
15629;SDS011;7914;50.842;0.166;2023-06-22T01:57:26;22.95;;;8.65;;
15629;SDS011;7914;50.842;0.166;2023-06-22T02:02:33;23.63;;;8.15;;
15629;SDS011;7914;50.842;0.166;2023-06-22T02:05:10;26.25;;;10.00;;
15629;SDS011;7914;50.842;0.166;2023-06-22T02:07:41;20.98;;;9.40;;
15629;SDS011;7914;50.842;0.166;2023-06-22T02:10:11;37.95;;;11.90;;
15629;SDS011;7914;50.842;0.166;2023-06-22T02:12:41;100.50;;;16.48;;
15629;SDS011;7914;50.842;0.166;2023-06-22T02:15:09;42.30;;;13.13;;
15629;SDS011;7914;50.842;0.166;2023-06-22T02:17:35;51.00;;;11.95;;
15629;SDS011;7914;50.842;0.166;2023-06-22T02:20:02;42.83;;;11.77;;
15629;SDS011;7914;50.842;0.166;2023-06-22T02:22:33;49.00;;;10.80;;
15629;SDS011;7914;50.842;0.166;2023-06-22T02:24:59;52.67;;;11.52;;
15629;SDS011;7914;50.842;0.166;2023-06-22T02:27:25;61.47;;;10.52;;
15629;SDS011;7914;50.842;0.166;2023-06-22T02:29:51;55.13;;;11.32;;
15629;SDS011;7914;50.842;0.166;2023-06-22T02:32:16;76.78;;;13.13;;
15629;SDS011;7914;50.842;0.166;2023-06-22T02:34:43;77.32;;;14.45;;
15629;SDS011;7914;50.842;0.166;2023-06-22T02:37:13;65.97;;;13.10;;
15629;SDS011;7914;50.842;0.166;2023-06-22T02:39:42;105.00;;;14.00;;
15629;SDS011;7914;50.842;0.166;2023-06-22T02:42:07;73.35;;;12.27;;
15629;SDS011;7914;50.842;0.166;2023-06-22T02:44:35;86.47;;;10.23;;
15629;SDS011;7914;50.842;0.166;2023-06-22T02:47:01;86.60;;;9.57;;
15629;SDS011;7914;50.842;0.166;2023-06-22T02:49:27;54.97;;;8.50;;
15629;SDS011;7914;50.842;0.166;2023-06-22T02:51:53;81.47;;;9.60;;
15629;SDS011;7914;50.842;0.166;2023-06-22T02:54:20;67.22;;;10.05;;
15629;SDS011;7914;50.842;0.166;2023-06-22T02:56:46;78.80;;;9.48;;
15629;SDS011;7914;50.842;0.166;2023-06-22T02:59:13;73.45;;;9.15;;
15629;SDS011;7914;50.842;0.166;2023-06-22T03:01:38;74.18;;;8.23;;
15629;SDS011;7914;50.842;0.166;2023-06-22T03:04:07;61.53;;;7.88;;
15629;SDS011;7914;50.842;0.166;2023-06-22T03:06:33;41.97;;;7.88;;
15629;SDS011;7914;50.842;0.166;2023-06-22T03:09:00;50.47;;;7.70;;
15629;SDS011;7914;50.842;0.166;2023-06-22T03:11:30;61.80;;;8.35;;
15629;SDS011;7914;50.842;0.166;2023-06-22T03:13:57;52.85;;;7.00;;
15629;SDS011;7914;50.842;0.166;2023-06-22T03:16:23;39.47;;;7.03;;
15629;SDS011;7914;50.842;0.166;2023-06-22T03:18:49;34.63;;;6.72;;
15629;SDS011;7914;50.842;0.166;2023-06-22T03:21:14;38.47;;;7.47;;
15629;SDS011;7914;50.842;0.166;2023-06-22T03:23:41;45.47;;;8.02;;
15629;SDS011;7914;50.842;0.166;2023-06-22T03:26:17;79.50;;;9.48;;
15629;SDS011;7914;50.842;0.166;2023-06-22T03:28:43;46.17;;;8.43;;
15629;SDS011;7914;50.842;0.166;2023-06-22T03:31:09;64.20;;;8.43;;
15629;SDS011;7914;50.842;0.166;2023-06-22T03:33:34;56.88;;;9.52;;
15629;SDS011;7914;50.842;0.166;2023-06-22T03:36:00;54.65;;;8.75;;
15629;SDS011;7914;50.842;0.166;2023-06-22T03:38:26;44.60;;;8.50;;
15629;SDS011;7914;50.842;0.166;2023-06-22T03:40:51;48.05;;;8.20;;
15629;SDS011;7914;50.842;0.166;2023-06-22T03:43:17;42.38;;;8.13;;
15629;SDS011;7914;50.842;0.166;2023-06-22T03:45:43;62.20;;;10.50;;
15629;SDS011;7914;50.842;0.166;2023-06-22T03:48:10;42.10;;;7.30;;
15629;SDS011;7914;50.842;0.166;2023-06-22T03:50:37;63.55;;;8.30;;
15629;SDS011;7914;50.842;0.166;2023-06-22T03:53:02;54.20;;;8.40;;
15629;SDS011;7914;50.842;0.166;2023-06-22T03:55:28;45.38;;;6.97;;
15629;SDS011;7914;50.842;0.166;2023-06-22T03:57:54;45.90;;;7.03;;
15629;SDS011;7914;50.842;0.166;2023-06-22T04:00:22;44.05;;;8.52;;
15629;SDS011;7914;50.842;0.166;2023-06-22T04:02:48;59.38;;;8.00;;
15629;SDS011;7914;50.842;0.166;2023-06-22T04:05:14;45.70;;;6.82;;
15629;SDS011;7914;50.842;0.166;2023-06-22T04:07:39;35.25;;;6.47;;
15629;SDS011;7914;50.842;0.166;2023-06-22T04:10:05;38.45;;;6.82;;
15629;SDS011;7914;50.842;0.166;2023-06-22T04:12:31;53.10;;;7.25;;
15629;SDS011;7914;50.842;0.166;2023-06-22T04:14:57;56.15;;;7.32;;
15629;SDS011;7914;50.842;0.166;2023-06-22T04:17:23;43.95;;;7.82;;
15629;SDS011;7914;50.842;0.166;2023-06-22T04:19:50;79.88;;;9.18;;
15629;SDS011;7914;50.842;0.166;2023-06-22T04:22:16;77.68;;;9.70;;
15629;SDS011;7914;50.842;0.166;2023-06-22T04:24:42;84.75;;;9.32;;
15629;SDS011;7914;50.842;0.166;2023-06-22T04:27:09;59.42;;;8.63;;
15629;SDS011;7914;50.842;0.166;2023-06-22T04:29:35;54.92;;;7.22;;
15629;SDS011;7914;50.842;0.166;2023-06-22T04:32:01;64.70;;;8.02;;
15629;SDS011;7914;50.842;0.166;2023-06-22T04:34:31;39.08;;;6.78;;
15629;SDS011;7914;50.842;0.166;2023-06-22T04:36:57;45.08;;;7.55;;
15629;SDS011;7914;50.842;0.166;2023-06-22T04:39:22;50.67;;;7.72;;
15629;SDS011;7914;50.842;0.166;2023-06-22T04:41:49;35.67;;;7.10;;
15629;SDS011;7914;50.842;0.166;2023-06-22T04:44:17;37.22;;;6.93;;
15629;SDS011;7914;50.842;0.166;2023-06-22T04:46:50;26.77;;;6.95;;
15629;SDS011;7914;50.842;0.166;2023-06-22T04:49:25;32.25;;;6.82;;
15629;SDS011;7914;50.842;0.166;2023-06-22T04:52:07;33.65;;;7.38;;
15629;SDS011;7914;50.842;0.166;2023-06-22T04:54:35;23.08;;;6.45;;
15629;SDS011;7914;50.842;0.166;2023-06-22T04:57:02;28.52;;;6.40;;
15629;SDS011;7914;50.842;0.166;2023-06-22T04:59:31;27.02;;;6.55;;
15629;SDS011;7914;50.842;0.166;2023-06-22T05:02:00;44.00;;;7.85;;
15629;SDS011;7914;50.842;0.166;2023-06-22T05:04:27;37.33;;;6.97;;
15629;SDS011;7914;50.842;0.166;2023-06-22T05:06:56;33.55;;;6.97;;
15629;SDS011;7914;50.842;0.166;2023-06-22T05:09:22;48.42;;;7.85;;
15629;SDS011;7914;50.842;0.166;2023-06-22T05:11:50;30.23;;;7.60;;
15629;SDS011;7914;50.842;0.166;2023-06-22T05:14:16;27.80;;;6.57;;
15629;SDS011;7914;50.842;0.166;2023-06-22T05:16:43;25.67;;;6.90;;
15629;SDS011;7914;50.842;0.166;2023-06-22T05:19:09;21.98;;;6.90;;
15629;SDS011;7914;50.842;0.166;2023-06-22T05:21:35;24.98;;;6.95;;
15629;SDS011;7914;50.842;0.166;2023-06-22T05:24:01;22.10;;;6.70;;
15629;SDS011;7914;50.842;0.166;2023-06-22T05:26:28;28.25;;;7.78;;
15629;SDS011;7914;50.842;0.166;2023-06-22T05:28:55;29.05;;;7.50;;
15629;SDS011;7914;50.842;0.166;2023-06-22T05:31:20;24.10;;;8.25;;
15629;SDS011;7914;50.842;0.166;2023-06-22T05:33:46;19.00;;;6.75;;
15629;SDS011;7914;50.842;0.166;2023-06-22T05:36:13;18.42;;;6.95;;
15629;SDS011;7914;50.842;0.166;2023-06-22T05:38:39;26.70;;;7.70;;
15629;SDS011;7914;50.842;0.166;2023-06-22T05:41:05;20.55;;;7.22;;
15629;SDS011;7914;50.842;0.166;2023-06-22T05:43:31;20.02;;;6.75;;
15629;SDS011;7914;50.842;0.166;2023-06-22T05:45:57;28.90;;;8.38;;
15629;SDS011;7914;50.842;0.166;2023-06-22T05:48:23;20.00;;;7.32;;
15629;SDS011;7914;50.842;0.166;2023-06-22T05:50:49;24.48;;;7.88;;
15629;SDS011;7914;50.842;0.166;2023-06-22T05:53:15;19.02;;;7.25;;
15629;SDS011;7914;50.842;0.166;2023-06-22T05:55:41;20.60;;;7.63;;
15629;SDS011;7914;50.842;0.166;2023-06-22T05:58:07;16.52;;;7.78;;
15629;SDS011;7914;50.842;0.166;2023-06-22T06:00:33;17.63;;;7.45;;
15629;SDS011;7914;50.842;0.166;2023-06-22T06:03:00;19.95;;;7.47;;
15629;SDS011;7914;50.842;0.166;2023-06-22T06:05:31;21.67;;;9.23;;
15629;SDS011;7914;50.842;0.166;2023-06-22T06:07:58;19.27;;;7.72;;
15629;SDS011;7914;50.842;0.166;2023-06-22T06:10:25;23.15;;;8.93;;
15629;SDS011;7914;50.842;0.166;2023-06-22T06:12:51;18.45;;;8.10;;
15629;SDS011;7914;50.842;0.166;2023-06-22T06:15:17;17.77;;;7.50;;
15629;SDS011;7914;50.842;0.166;2023-06-22T06:17:50;23.42;;;9.63;;
15629;SDS011;7914;50.842;0.166;2023-06-22T06:20:21;19.73;;;8.73;;
15629;SDS011;7914;50.842;0.166;2023-06-22T06:22:48;19.90;;;9.40;;
15629;SDS011;7914;50.842;0.166;2023-06-22T06:25:14;19.15;;;9.05;;
15629;SDS011;7914;50.842;0.166;2023-06-22T06:27:45;20.33;;;8.32;;
15629;SDS011;7914;50.842;0.166;2023-06-22T06:30:12;19.92;;;8.90;;
15629;SDS011;7914;50.842;0.166;2023-06-22T06:32:39;23.08;;;9.40;;
15629;SDS011;7914;50.842;0.166;2023-06-22T06:35:08;22.45;;;9.55;;
15629;SDS011;7914;50.842;0.166;2023-06-22T06:37:42;23.10;;;8.60;;
15629;SDS011;7914;50.842;0.166;2023-06-22T06:40:09;24.25;;;10.15;;
15629;SDS011;7914;50.842;0.166;2023-06-22T06:42:37;24.92;;;9.20;;
15629;SDS011;7914;50.842;0.166;2023-06-22T06:45:06;23.30;;;10.13;;
15629;SDS011;7914;50.842;0.166;2023-06-22T06:47:32;22.10;;;8.95;;
15629;SDS011;7914;50.842;0.166;2023-06-22T06:49:58;24.90;;;9.38;;
15629;SDS011;7914;50.842;0.166;2023-06-22T06:52:23;25.83;;;10.45;;
15629;SDS011;7914;50.842;0.166;2023-06-22T06:54:49;21.73;;;9.35;;
15629;SDS011;7914;50.842;0.166;2023-06-22T06:57:16;21.75;;;8.65;;
15629;SDS011;7914;50.842;0.166;2023-06-22T06:59:43;23.20;;;10.98;;
15629;SDS011;7914;50.842;0.166;2023-06-22T07:02:08;18.38;;;8.82;;
15629;SDS011;7914;50.842;0.166;2023-06-22T07:04:34;19.10;;;9.45;;
15629;SDS011;7914;50.842;0.166;2023-06-22T07:07:01;21.42;;;8.70;;
15629;SDS011;7914;50.842;0.166;2023-06-22T07:09:27;18.25;;;8.45;;
15629;SDS011;7914;50.842;0.166;2023-06-22T07:11:54;15.65;;;7.57;;
15629;SDS011;7914;50.842;0.166;2023-06-22T07:14:20;18.25;;;8.38;;
15629;SDS011;7914;50.842;0.166;2023-06-22T07:16:45;18.95;;;8.75;;
15629;SDS011;7914;50.842;0.166;2023-06-22T07:19:11;25.90;;;9.23;;
15629;SDS011;7914;50.842;0.166;2023-06-22T07:21:38;17.40;;;8.32;;
15629;SDS011;7914;50.842;0.166;2023-06-22T07:24:04;17.60;;;7.97;;
15629;SDS011;7914;50.842;0.166;2023-06-22T07:26:32;16.08;;;7.65;;
15629;SDS011;7914;50.842;0.166;2023-06-22T07:28:58;18.08;;;8.55;;
15629;SDS011;7914;50.842;0.166;2023-06-22T07:31:24;15.93;;;8.52;;
15629;SDS011;7914;50.842;0.166;2023-06-22T07:33:50;19.50;;;8.18;;
15629;SDS011;7914;50.842;0.166;2023-06-22T07:36:16;17.02;;;8.20;;
15629;SDS011;7914;50.842;0.166;2023-06-22T07:38:42;14.57;;;7.93;;
15629;SDS011;7914;50.842;0.166;2023-06-22T07:41:08;14.63;;;7.32;;
15629;SDS011;7914;50.842;0.166;2023-06-22T07:43:34;15.48;;;7.40;;
15629;SDS011;7914;50.842;0.166;2023-06-22T07:46:05;16.05;;;7.63;;
15629;SDS011;7914;50.842;0.166;2023-06-22T07:48:31;16.23;;;7.60;;
15629;SDS011;7914;50.842;0.166;2023-06-22T07:50:57;16.15;;;7.60;;
15629;SDS011;7914;50.842;0.166;2023-06-22T07:53:26;13.73;;;7.82;;
15629;SDS011;7914;50.842;0.166;2023-06-22T07:55:53;14.02;;;7.50;;
15629;SDS011;7914;50.842;0.166;2023-06-22T07:58:18;12.65;;;7.25;;
15629;SDS011;7914;50.842;0.166;2023-06-22T08:00:45;12.77;;;7.80;;
15629;SDS011;7914;50.842;0.166;2023-06-22T08:03:12;15.30;;;7.93;;
15629;SDS011;7914;50.842;0.166;2023-06-22T08:05:38;13.35;;;8.00;;
15629;SDS011;7914;50.842;0.166;2023-06-22T08:08:05;14.93;;;8.55;;
15629;SDS011;7914;50.842;0.166;2023-06-22T08:10:31;12.43;;;7.40;;
15629;SDS011;7914;50.842;0.166;2023-06-22T08:12:56;15.68;;;9.02;;
15629;SDS011;7914;50.842;0.166;2023-06-22T08:15:22;14.63;;;7.55;;
15629;SDS011;7914;50.842;0.166;2023-06-22T08:17:48;14.27;;;7.65;;
15629;SDS011;7914;50.842;0.166;2023-06-22T08:20:14;14.32;;;7.78;;
15629;SDS011;7914;50.842;0.166;2023-06-22T08:22:42;12.07;;;7.68;;
15629;SDS011;7914;50.842;0.166;2023-06-22T08:25:09;14.20;;;6.85;;
15629;SDS011;7914;50.842;0.166;2023-06-22T08:27:35;14.43;;;6.60;;
15629;SDS011;7914;50.842;0.166;2023-06-22T08:30:01;13.48;;;7.32;;
15629;SDS011;7914;50.842;0.166;2023-06-22T08:32:27;12.35;;;6.90;;
15629;SDS011;7914;50.842;0.166;2023-06-22T08:34:54;11.90;;;6.82;;
15629;SDS011;7914;50.842;0.166;2023-06-22T08:37:21;12.65;;;5.95;;
15629;SDS011;7914;50.842;0.166;2023-06-22T08:39:59;11.38;;;6.15;;
15629;SDS011;7914;50.842;0.166;2023-06-22T08:42:35;11.25;;;5.47;;
15629;SDS011;7914;50.842;0.166;2023-06-22T08:45:01;11.38;;;6.97;;
15629;SDS011;7914;50.842;0.166;2023-06-22T08:47:28;10.73;;;5.82;;
15629;SDS011;7914;50.842;0.166;2023-06-22T08:49:54;13.45;;;6.35;;
15629;SDS011;7914;50.842;0.166;2023-06-22T08:52:19;11.80;;;5.72;;
15629;SDS011;7914;50.842;0.166;2023-06-22T08:54:48;8.25;;;4.47;;
15629;SDS011;7914;50.842;0.166;2023-06-22T08:57:14;10.75;;;4.65;;
15629;SDS011;7914;50.842;0.166;2023-06-22T08:59:41;7.70;;;3.53;;
15629;SDS011;7914;50.842;0.166;2023-06-22T09:02:07;6.63;;;3.78;;
15629;SDS011;7914;50.842;0.166;2023-06-22T09:04:33;6.90;;;3.50;;
15629;SDS011;7914;50.842;0.166;2023-06-22T09:07:02;9.10;;;4.57;;
15629;SDS011;7914;50.842;0.166;2023-06-22T09:09:28;7.95;;;4.20;;
15629;SDS011;7914;50.842;0.166;2023-06-22T09:11:53;8.35;;;4.63;;
15629;SDS011;7914;50.842;0.166;2023-06-22T09:14:19;7.53;;;4.07;;
15629;SDS011;7914;50.842;0.166;2023-06-22T09:16:45;9.57;;;4.18;;
15629;SDS011;7914;50.842;0.166;2023-06-22T09:19:11;6.45;;;3.15;;
15629;SDS011;7914;50.842;0.166;2023-06-22T09:21:37;8.43;;;3.10;;
15629;SDS011;7914;50.842;0.166;2023-06-22T09:24:03;7.72;;;3.45;;
15629;SDS011;7914;50.842;0.166;2023-06-22T09:26:29;7.30;;;3.50;;
15629;SDS011;7914;50.842;0.166;2023-06-22T09:28:54;7.30;;;3.65;;
15629;SDS011;7914;50.842;0.166;2023-06-22T09:31:20;7.65;;;3.33;;
15629;SDS011;7914;50.842;0.166;2023-06-22T09:33:55;6.45;;;3.03;;
15629;SDS011;7914;50.842;0.166;2023-06-22T09:36:21;7.38;;;3.03;;
15629;SDS011;7914;50.842;0.166;2023-06-22T09:38:47;7.05;;;2.80;;
15629;SDS011;7914;50.842;0.166;2023-06-22T09:41:13;7.72;;;2.72;;
15629;SDS011;7914;50.842;0.166;2023-06-22T09:43:39;7.10;;;3.20;;
15629;SDS011;7914;50.842;0.166;2023-06-22T09:46:04;5.72;;;2.75;;
15629;SDS011;7914;50.842;0.166;2023-06-22T09:48:32;5.50;;;2.85;;
15629;SDS011;7914;50.842;0.166;2023-06-22T09:50:57;6.38;;;3.08;;
15629;SDS011;7914;50.842;0.166;2023-06-22T09:53:23;5.10;;;2.63;;
15629;SDS011;7914;50.842;0.166;2023-06-22T09:55:49;5.13;;;2.28;;
15629;SDS011;7914;50.842;0.166;2023-06-22T09:58:14;5.93;;;2.70;;
15629;SDS011;7914;50.842;0.166;2023-06-22T10:00:40;6.25;;;2.33;;
15629;SDS011;7914;50.842;0.166;2023-06-22T10:03:06;8.80;;;2.35;;
15629;SDS011;7914;50.842;0.166;2023-06-22T10:05:32;7.70;;;2.80;;
15629;SDS011;7914;50.842;0.166;2023-06-22T10:07:58;6.68;;;2.40;;
15629;SDS011;7914;50.842;0.166;2023-06-22T10:10:24;5.22;;;2.08;;
15629;SDS011;7914;50.842;0.166;2023-06-22T10:12:56;5.60;;;1.92;;
15629;SDS011;7914;50.842;0.166;2023-06-22T10:15:22;5.03;;;2.05;;
15629;SDS011;7914;50.842;0.166;2023-06-22T10:17:48;7.03;;;2.22;;
15629;SDS011;7914;50.842;0.166;2023-06-22T10:20:14;6.75;;;2.30;;
15629;SDS011;7914;50.842;0.166;2023-06-22T10:22:43;5.82;;;2.47;;
15629;SDS011;7914;50.842;0.166;2023-06-22T10:25:11;4.30;;;1.77;;
15629;SDS011;7914;50.842;0.166;2023-06-22T10:27:37;4.65;;;1.83;;
15629;SDS011;7914;50.842;0.166;2023-06-22T10:30:10;5.22;;;2.13;;
15629;SDS011;7914;50.842;0.166;2023-06-22T10:32:37;6.78;;;2.70;;
15629;SDS011;7914;50.842;0.166;2023-06-22T10:35:04;5.10;;;2.33;;
15629;SDS011;7914;50.842;0.166;2023-06-22T10:37:30;6.80;;;3.28;;
15629;SDS011;7914;50.842;0.166;2023-06-22T10:39:56;5.05;;;2.20;;
15629;SDS011;7914;50.842;0.166;2023-06-22T10:42:22;6.15;;;2.92;;
15629;SDS011;7914;50.842;0.166;2023-06-22T10:44:48;7.53;;;2.70;;
15629;SDS011;7914;50.842;0.166;2023-06-22T10:47:13;5.18;;;1.92;;
15629;SDS011;7914;50.842;0.166;2023-06-22T10:49:39;4.72;;;2.13;;
15629;SDS011;7914;50.842;0.166;2023-06-22T10:52:08;5.63;;;2.00;;
15629;SDS011;7914;50.842;0.166;2023-06-22T10:54:35;4.60;;;1.95;;
15629;SDS011;7914;50.842;0.166;2023-06-22T10:57:02;6.10;;;2.50;;
15629;SDS011;7914;50.842;0.166;2023-06-22T10:59:28;7.15;;;2.55;;
15629;SDS011;7914;50.842;0.166;2023-06-22T11:01:57;4.97;;;2.47;;
15629;SDS011;7914;50.842;0.166;2023-06-22T11:04:24;5.50;;;2.50;;
15629;SDS011;7914;50.842;0.166;2023-06-22T11:06:50;5.45;;;2.22;;
15629;SDS011;7914;50.842;0.166;2023-06-22T11:09:16;8.02;;;2.83;;
15629;SDS011;7914;50.842;0.166;2023-06-22T11:11:45;6.90;;;2.92;;
15629;SDS011;7914;50.842;0.166;2023-06-22T11:14:15;6.10;;;2.65;;
15629;SDS011;7914;50.842;0.166;2023-06-22T11:16:41;6.57;;;3.17;;
15629;SDS011;7914;50.842;0.166;2023-06-22T11:19:07;5.53;;;2.92;;
15629;SDS011;7914;50.842;0.166;2023-06-22T11:21:33;6.00;;;2.60;;
15629;SDS011;7914;50.842;0.166;2023-06-22T11:23:59;5.68;;;2.92;;
15629;SDS011;7914;50.842;0.166;2023-06-22T11:26:25;5.13;;;2.25;;
15629;SDS011;7914;50.842;0.166;2023-06-22T11:28:54;6.72;;;2.90;;
15629;SDS011;7914;50.842;0.166;2023-06-22T11:31:20;7.45;;;2.90;;
15629;SDS011;7914;50.842;0.166;2023-06-22T11:33:45;6.15;;;3.13;;
15629;SDS011;7914;50.842;0.166;2023-06-22T11:36:13;7.88;;;2.40;;
15629;SDS011;7914;50.842;0.166;2023-06-22T11:38:39;6.68;;;2.83;;
15629;SDS011;7914;50.842;0.166;2023-06-22T11:41:09;6.43;;;3.20;;
15629;SDS011;7914;50.842;0.166;2023-06-22T11:43:35;6.68;;;2.78;;
15629;SDS011;7914;50.842;0.166;2023-06-22T11:46:02;6.78;;;2.95;;
15629;SDS011;7914;50.842;0.166;2023-06-22T11:48:29;5.80;;;2.72;;
15629;SDS011;7914;50.842;0.166;2023-06-22T11:50:55;7.85;;;3.15;;
15629;SDS011;7914;50.842;0.166;2023-06-22T11:53:23;6.47;;;3.08;;
15629;SDS011;7914;50.842;0.166;2023-06-22T11:55:50;6.95;;;3.20;;
15629;SDS011;7914;50.842;0.166;2023-06-22T11:58:16;6.30;;;2.70;;
15629;SDS011;7914;50.842;0.166;2023-06-22T12:00:42;6.88;;;2.97;;
15629;SDS011;7914;50.842;0.166;2023-06-22T12:03:07;7.63;;;3.03;;
15629;SDS011;7914;50.842;0.166;2023-06-22T12:05:34;7.38;;;3.13;;
15629;SDS011;7914;50.842;0.166;2023-06-22T12:08:00;6.85;;;3.28;;
15629;SDS011;7914;50.842;0.166;2023-06-22T12:10:26;5.78;;;2.78;;
15629;SDS011;7914;50.842;0.166;2023-06-22T12:12:53;6.57;;;3.08;;
15629;SDS011;7914;50.842;0.166;2023-06-22T12:15:19;8.13;;;4.00;;
15629;SDS011;7914;50.842;0.166;2023-06-22T12:17:46;7.10;;;3.38;;
15629;SDS011;7914;50.842;0.166;2023-06-22T12:20:13;6.13;;;2.90;;
15629;SDS011;7914;50.842;0.166;2023-06-22T12:22:39;7.93;;;3.15;;
15629;SDS011;7914;50.842;0.166;2023-06-22T12:25:06;8.07;;;3.78;;
15629;SDS011;7914;50.842;0.166;2023-06-22T12:27:32;9.05;;;3.60;;
15629;SDS011;7914;50.842;0.166;2023-06-22T12:29:59;10.35;;;3.90;;
15629;SDS011;7914;50.842;0.166;2023-06-22T12:32:25;8.55;;;3.50;;
15629;SDS011;7914;50.842;0.166;2023-06-22T12:34:51;8.48;;;3.75;;
15629;SDS011;7914;50.842;0.166;2023-06-22T12:37:16;7.88;;;4.05;;
15629;SDS011;7914;50.842;0.166;2023-06-22T12:39:43;7.38;;;3.95;;
15629;SDS011;7914;50.842;0.166;2023-06-22T12:42:08;8.45;;;4.60;;
15629;SDS011;7914;50.842;0.166;2023-06-22T12:44:37;8.95;;;4.50;;
15629;SDS011;7914;50.842;0.166;2023-06-22T12:47:04;8.68;;;4.05;;
15629;SDS011;7914;50.842;0.166;2023-06-22T12:49:30;10.98;;;4.97;;
15629;SDS011;7914;50.842;0.166;2023-06-22T12:51:56;10.27;;;4.80;;
15629;SDS011;7914;50.842;0.166;2023-06-22T12:54:22;8.98;;;4.35;;
15629;SDS011;7914;50.842;0.166;2023-06-22T12:56:49;11.07;;;4.82;;
15629;SDS011;7914;50.842;0.166;2023-06-22T12:59:15;10.98;;;5.05;;
15629;SDS011;7914;50.842;0.166;2023-06-22T13:01:42;12.85;;;5.38;;
15629;SDS011;7914;50.842;0.166;2023-06-22T13:04:10;11.23;;;5.05;;
15629;SDS011;7914;50.842;0.166;2023-06-22T13:06:39;10.65;;;4.95;;
15629;SDS011;7914;50.842;0.166;2023-06-22T13:09:05;11.82;;;6.00;;
15629;SDS011;7914;50.842;0.166;2023-06-22T13:11:31;9.63;;;4.70;;
15629;SDS011;7914;50.842;0.166;2023-06-22T13:13:57;9.70;;;5.55;;
15629;SDS011;7914;50.842;0.166;2023-06-22T13:16:23;8.77;;;4.63;;
15629;SDS011;7914;50.842;0.166;2023-06-22T13:18:48;9.68;;;4.72;;
15629;SDS011;7914;50.842;0.166;2023-06-22T13:21:14;9.85;;;4.68;;
15629;SDS011;7914;50.842;0.166;2023-06-22T13:23:40;12.32;;;5.25;;
15629;SDS011;7914;50.842;0.166;2023-06-22T13:26:05;11.50;;;4.82;;
15629;SDS011;7914;50.842;0.166;2023-06-22T13:28:31;9.13;;;4.78;;
15629;SDS011;7914;50.842;0.166;2023-06-22T13:30:57;9.05;;;5.07;;
15629;SDS011;7914;50.842;0.166;2023-06-22T13:33:22;11.95;;;5.55;;
15629;SDS011;7914;50.842;0.166;2023-06-22T13:35:48;11.38;;;5.25;;
15629;SDS011;7914;50.842;0.166;2023-06-22T13:38:14;12.90;;;5.05;;
15629;SDS011;7914;50.842;0.166;2023-06-22T13:40:40;13.55;;;5.00;;
15629;SDS011;7914;50.842;0.166;2023-06-22T13:43:06;11.82;;;5.10;;
15629;SDS011;7914;50.842;0.166;2023-06-22T13:45:32;11.60;;;5.47;;
15629;SDS011;7914;50.842;0.166;2023-06-22T13:47:58;12.27;;;4.75;;
15629;SDS011;7914;50.842;0.166;2023-06-22T13:50:23;12.18;;;5.07;;
15629;SDS011;7914;50.842;0.166;2023-06-22T13:52:49;10.35;;;4.70;;
15629;SDS011;7914;50.842;0.166;2023-06-22T13:55:15;10.00;;;4.95;;
15629;SDS011;7914;50.842;0.166;2023-06-22T13:57:41;11.60;;;5.15;;
15629;SDS011;7914;50.842;0.166;2023-06-22T14:00:07;10.93;;;6.03;;
15629;SDS011;7914;50.842;0.166;2023-06-22T14:02:34;9.70;;;5.03;;
15629;SDS011;7914;50.842;0.166;2023-06-22T14:05:00;12.02;;;5.60;;
15629;SDS011;7914;50.842;0.166;2023-06-22T14:07:27;11.15;;;4.95;;
15629;SDS011;7914;50.842;0.166;2023-06-22T14:09:53;12.68;;;4.80;;
15629;SDS011;7914;50.842;0.166;2023-06-22T14:12:18;8.88;;;5.05;;
15629;SDS011;7914;50.842;0.166;2023-06-22T14:14:44;12.38;;;5.00;;
15629;SDS011;7914;50.842;0.166;2023-06-22T14:17:10;8.82;;;4.70;;
15629;SDS011;7914;50.842;0.166;2023-06-22T14:19:36;9.57;;;4.70;;
15629;SDS011;7914;50.842;0.166;2023-06-22T14:22:02;9.95;;;5.22;;
15629;SDS011;7914;50.842;0.166;2023-06-22T14:24:28;11.80;;;4.93;;
15629;SDS011;7914;50.842;0.166;2023-06-22T14:26:54;11.45;;;5.47;;
15629;SDS011;7914;50.842;0.166;2023-06-22T14:29:20;11.00;;;4.90;;
15629;SDS011;7914;50.842;0.166;2023-06-22T14:31:47;9.93;;;4.53;;
15629;SDS011;7914;50.842;0.166;2023-06-22T14:34:13;12.93;;;4.97;;
15629;SDS011;7914;50.842;0.166;2023-06-22T14:36:39;9.68;;;4.68;;
15629;SDS011;7914;50.842;0.166;2023-06-22T14:39:05;10.93;;;4.93;;
15629;SDS011;7914;50.842;0.166;2023-06-22T14:41:31;8.23;;;4.43;;
15629;SDS011;7914;50.842;0.166;2023-06-22T14:43:57;13.40;;;5.22;;
15629;SDS011;7914;50.842;0.166;2023-06-22T14:46:22;11.25;;;5.68;;
15629;SDS011;7914;50.842;0.166;2023-06-22T14:48:48;9.25;;;4.50;;
15629;SDS011;7914;50.842;0.166;2023-06-22T14:51:14;10.63;;;5.43;;
15629;SDS011;7914;50.842;0.166;2023-06-22T14:53:41;12.10;;;5.32;;
15629;SDS011;7914;50.842;0.166;2023-06-22T14:56:08;10.05;;;4.85;;